createdAt,value
2022-10-23T00:01:49.819Z,4.45
2022-10-23T00:04:23.942Z,4.63
2022-10-23T00:06:50.764Z,5.22
2022-10-23T00:09:23.722Z,5.17
2022-10-23T00:11:52.399Z,3.85
2022-10-23T00:14:22.187Z,4.25
2022-10-23T00:16:48.680Z,4.95
2022-10-23T00:19:15.609Z,4.75
2022-10-23T00:21:42.150Z,5.00
2022-10-23T00:26:36.861Z,4.45
2022-10-23T00:29:03.795Z,5.20
2022-10-23T00:31:30.235Z,5.97
2022-10-23T00:33:56.771Z,3.93
2022-10-23T00:36:23.580Z,3.63
2022-10-23T00:38:50.257Z,4.95
2022-10-23T00:41:23.957Z,4.20
2022-10-23T00:43:59.547Z,4.82
2022-10-23T00:46:26.530Z,5.47
2022-10-23T00:48:53.031Z,5.13
2022-10-23T00:51:19.711Z,4.60
2022-10-23T00:54:01.053Z,4.15
2022-10-23T00:56:39.516Z,3.70
2022-10-23T00:59:06.396Z,4.40
2022-10-23T01:01:33.058Z,4.78
2022-10-23T01:04:01.320Z,4.32
2022-10-23T01:06:42.594Z,4.20
2022-10-23T01:09:27.021Z,4.85
2022-10-23T01:12:01.665Z,5.30
2022-10-23T01:14:37.925Z,3.03
2022-10-23T01:17:12.459Z,4.53
2022-10-23T01:20:02.675Z,4.80
2022-10-23T01:22:34.911Z,5.82
2022-10-23T01:25:23.567Z,4.57
2022-10-23T01:28:00.494Z,5.55
2022-10-23T01:30:27.038Z,5.32
2022-10-23T01:32:53.668Z,4.43
2022-10-23T01:35:29.038Z,4.10
2022-10-23T01:38:03.411Z,4.90
2022-10-23T01:40:34.975Z,3.72
2022-10-23T01:43:10.364Z,5.80
2022-10-23T01:45:44.359Z,5.90
2022-10-23T01:48:15.295Z,4.15
2022-10-23T01:50:43.475Z,6.32
2022-10-23T01:53:10.054Z,4.18
2022-10-23T01:55:39.087Z,5.10
2022-10-23T01:58:07.487Z,4.45
2022-10-23T02:00:38.640Z,5.25
2022-10-23T02:03:08.555Z,4.30
2022-10-23T02:05:35.442Z,4.75
2022-10-23T02:08:02.630Z,4.90
2022-10-23T02:10:38.723Z,4.35
2022-10-23T02:13:24.996Z,3.75
2022-10-23T02:16:29.600Z,6.80
2022-10-23T02:19:04.683Z,5.43
2022-10-23T02:21:50.426Z,5.22
2022-10-23T02:24:23.899Z,4.70
2022-10-23T02:26:57.620Z,4.45
2022-10-23T02:29:37.706Z,3.73
2022-10-23T02:32:05.977Z,5.63
2022-10-23T02:34:32.630Z,4.45
2022-10-23T02:36:59.371Z,5.88
2022-10-23T02:39:27.999Z,6.35
2022-10-23T02:42:02.817Z,4.10
2022-10-23T02:44:43.066Z,5.18
2022-10-23T02:47:30.607Z,5.15
2022-10-23T02:50:10.925Z,5.63
2022-10-23T02:52:55.763Z,6.82
2022-10-23T02:55:37.390Z,5.32
2022-10-23T02:58:12.827Z,3.75
2022-10-23T03:00:54.603Z,6.03
2022-10-23T03:03:29.968Z,6.05
2022-10-23T03:05:56.637Z,6.50
2022-10-23T03:08:23.304Z,4.72
2022-10-23T03:10:49.859Z,4.72
2022-10-23T03:13:16.324Z,5.68
2022-10-23T03:15:43.871Z,6.18
2022-10-23T03:18:10.455Z,5.90
2022-10-23T03:20:36.957Z,5.20
2022-10-23T03:23:03.456Z,3.83
2022-10-23T03:25:29.953Z,4.05
2022-10-23T03:27:56.424Z,4.13
2022-10-23T03:30:23.091Z,3.75
2022-10-23T03:32:49.639Z,5.50
2022-10-23T03:35:16.412Z,6.10
2022-10-23T03:37:43.069Z,6.07
2022-10-23T03:40:10.394Z,6.13
2022-10-23T03:42:36.862Z,6.95
2022-10-23T03:45:03.651Z,5.50
2022-10-23T03:47:30.269Z,6.53
2022-10-23T03:49:56.766Z,5.95
2022-10-23T03:54:54.776Z,5.28
2022-10-23T03:57:21.304Z,4.60
2022-10-23T03:59:47.829Z,6.93
2022-10-23T04:02:14.522Z,5.10
2022-10-23T04:04:41.083Z,5.05
2022-10-23T04:07:07.607Z,6.93
2022-10-23T04:09:34.133Z,5.80
2022-10-23T04:12:00.591Z,7.85
2022-10-23T04:14:27.367Z,7.70
2022-10-23T04:16:53.899Z,5.63
2022-10-23T04:19:20.364Z,4.75
2022-10-23T04:21:46.920Z,5.88
2022-10-23T04:24:13.830Z,8.45
2022-10-23T04:26:40.324Z,5.28
2022-10-23T04:29:06.881Z,7.85
2022-10-23T04:31:33.513Z,4.63
2022-10-23T04:34:00.383Z,8.82
2022-10-23T04:36:26.987Z,8.35
2022-10-23T04:38:53.541Z,6.43
2022-10-23T04:41:20.042Z,5.28
2022-10-23T04:43:46.491Z,9.75
2022-10-23T04:46:13.147Z,9.68
2022-10-23T04:48:39.625Z,8.25
2022-10-23T04:51:06.531Z,6.45
2022-10-23T04:53:33.305Z,6.70
2022-10-23T04:56:00.231Z,8.00
2022-10-23T04:58:28.532Z,6.13
2022-10-23T05:00:55.295Z,7.22
2022-10-23T05:03:23.161Z,8.77
2022-10-23T05:05:53.391Z,6.47
2022-10-23T05:08:20.420Z,6.60
2022-10-23T05:10:48.376Z,8.80
2022-10-23T05:13:14.904Z,6.32
2022-10-23T05:18:35.915Z,6.97
2022-10-23T05:21:14.971Z,5.78
2022-10-23T05:23:44.342Z,8.88
2022-10-23T05:26:10.824Z,9.07
2022-10-23T05:28:37.537Z,7.05
2022-10-23T05:31:05.638Z,6.28
2022-10-23T05:33:33.322Z,8.00
2022-10-23T05:36:01.186Z,5.75
2022-10-23T05:38:32.195Z,7.85
2022-10-23T05:40:58.903Z,9.30
2022-10-23T05:43:25.616Z,6.13
2022-10-23T05:45:52.066Z,6.72
2022-10-23T05:48:33.461Z,7.63
2022-10-23T05:51:08.137Z,8.40
2022-10-23T05:53:36.257Z,10.18
2022-10-23T05:56:09.315Z,10.02
2022-10-23T05:58:35.798Z,10.23
2022-10-23T06:01:11.573Z,8.00
2022-10-23T06:03:39.113Z,9.43
2022-10-23T06:06:07.189Z,8.23
2022-10-23T06:08:34.673Z,8.18
2022-10-23T06:11:12.040Z,9.43
2022-10-23T06:13:38.688Z,8.27
2022-10-23T06:16:24.478Z,8.40
2022-10-23T06:18:51.239Z,17.05
2022-10-23T06:21:18.205Z,7.47
2022-10-23T06:23:46.403Z,7.88
2022-10-23T06:26:15.764Z,7.05
2022-10-23T06:28:42.564Z,8.48
2022-10-23T06:31:11.981Z,9.73
2022-10-23T06:33:38.770Z,7.38
2022-10-23T06:36:06.109Z,9.35
2022-10-23T06:38:32.669Z,8.32
2022-10-23T06:40:59.194Z,9.23
2022-10-23T06:43:25.652Z,8.75
2022-10-23T06:45:52.128Z,8.27
2022-10-23T06:48:18.655Z,9.98
2022-10-23T06:50:45.183Z,10.35
2022-10-23T06:53:12.220Z,10.50
2022-10-23T06:55:39.134Z,8.45
2022-10-23T06:58:07.020Z,10.77
2022-10-23T07:00:33.532Z,10.32
2022-10-23T07:03:00.051Z,7.63
2022-10-23T07:05:26.509Z,9.65
2022-10-23T07:07:52.964Z,14.88
2022-10-23T07:10:19.509Z,11.15
2022-10-23T07:12:46.090Z,11.15
2022-10-23T07:15:12.643Z,6.10
2022-10-23T07:17:39.245Z,9.90
2022-10-23T07:20:06.200Z,9.93
2022-10-23T07:22:32.762Z,8.45
2022-10-23T07:24:59.417Z,7.07
2022-10-23T07:27:26.423Z,9.05
2022-10-23T07:29:53.232Z,9.25
2022-10-23T07:32:20.231Z,8.50
2022-10-23T07:34:46.876Z,8.75
2022-10-23T07:37:13.416Z,8.75
2022-10-23T07:39:40.160Z,7.47
2022-10-23T07:42:06.702Z,8.00
2022-10-23T07:44:33.256Z,8.65
2022-10-23T07:46:59.898Z,10.15
2022-10-23T07:49:26.455Z,13.13
2022-10-23T07:51:53.091Z,11.40
2022-10-23T07:54:19.796Z,9.82
2022-10-23T07:56:46.337Z,11.02
2022-10-23T07:59:13.788Z,11.85
2022-10-23T08:01:41.177Z,13.57
2022-10-23T08:04:09.280Z,8.18
2022-10-23T08:06:36.151Z,9.60
2022-10-23T08:09:06.278Z,9.15
2022-10-23T08:11:34.012Z,11.75
2022-10-23T08:14:02.150Z,9.57
2022-10-23T08:16:28.749Z,7.75
2022-10-23T08:18:55.289Z,9.73
2022-10-23T08:21:21.977Z,10.82
2022-10-23T08:23:48.686Z,11.10
2022-10-23T08:26:15.562Z,13.13
2022-10-23T08:28:42.104Z,7.38
2022-10-23T08:31:11.486Z,10.65
2022-10-23T08:33:39.085Z,6.85
2022-10-23T08:36:06.444Z,12.40
2022-10-23T08:38:33.206Z,9.60
2022-10-23T08:40:59.925Z,12.32
2022-10-23T08:43:45.308Z,12.00
2022-10-23T08:46:17.822Z,8.25
2022-10-23T08:48:57.019Z,7.03
2022-10-23T08:51:38.012Z,8.23
2022-10-23T08:54:25.779Z,8.57
2022-10-23T08:57:03.983Z,8.30
2022-10-23T08:59:38.357Z,10.32
2022-10-23T09:02:17.547Z,7.47
2022-10-23T09:04:48.304Z,9.95
2022-10-23T09:07:56.237Z,12.68
2022-10-23T09:10:48.149Z,10.20
2022-10-23T09:13:53.954Z,11.05
2022-10-23T09:16:32.500Z,10.68
2022-10-23T09:18:59.489Z,25.20
2022-10-23T09:21:29.513Z,10.90
2022-10-23T09:23:56.848Z,10.77
2022-10-23T09:26:23.550Z,9.40
2022-10-23T09:28:52.872Z,9.00
2022-10-23T09:31:19.860Z,9.20
2022-10-23T09:34:00.631Z,9.63
2022-10-23T09:36:28.785Z,7.00
2022-10-23T09:38:59.484Z,10.90
2022-10-23T09:41:38.946Z,7.53
2022-10-23T09:44:08.478Z,8.13
2022-10-23T09:46:43.374Z,8.77
2022-10-23T09:49:20.805Z,7.32
2022-10-23T09:52:02.152Z,5.57
2022-10-23T09:54:32.408Z,9.02
2022-10-23T09:57:04.809Z,6.85
2022-10-23T09:59:32.663Z,6.43
2022-10-23T10:02:02.024Z,7.80
2022-10-23T10:04:37.391Z,5.93
2022-10-23T10:07:06.875Z,6.72
2022-10-23T10:09:33.707Z,7.90
2022-10-23T10:12:23.551Z,7.60
2022-10-23T10:15:26.043Z,9.70
2022-10-23T10:18:20.056Z,9.65
2022-10-23T10:21:20.099Z,10.27
2022-10-23T10:24:18.451Z,7.60
2022-10-23T10:26:58.193Z,6.40
2022-10-23T10:29:42.903Z,5.30
2022-10-23T10:32:57.153Z,6.38
2022-10-23T10:35:45.804Z,6.82
2022-10-23T10:38:47.365Z,7.80
2022-10-23T10:41:37.423Z,9.27
2022-10-23T10:44:32.663Z,8.85
2022-10-23T10:47:10.817Z,7.70
2022-10-23T10:49:55.657Z,7.13
2022-10-23T10:52:46.670Z,8.85
2022-10-23T10:55:32.314Z,5.50
2022-10-23T10:58:10.268Z,6.30
2022-10-23T11:00:37.094Z,5.55
2022-10-23T11:03:28.128Z,5.50
2022-10-23T11:08:29.261Z,4.65
2022-10-23T11:11:03.081Z,5.88
2022-10-23T11:13:38.567Z,8.25
2022-10-23T11:16:15.496Z,4.30
2022-10-23T11:18:47.292Z,9.45
2022-10-23T11:21:28.098Z,7.53
2022-10-23T11:24:03.899Z,4.03
2022-10-23T11:26:36.572Z,5.32
2022-10-23T11:29:18.199Z,4.43
2022-10-23T11:31:56.564Z,6.65
2022-10-23T11:34:40.306Z,5.90
2022-10-23T11:37:07.704Z,4.85
2022-10-23T11:39:36.709Z,5.05
2022-10-23T11:42:06.087Z,6.65
2022-10-23T11:44:41.732Z,7.75
2022-10-23T11:47:30.765Z,3.85
2022-10-23T11:50:08.607Z,5.30
2022-10-23T11:52:50.410Z,4.95
2022-10-23T11:55:31.144Z,6.68
2022-10-23T11:58:19.394Z,7.43
2022-10-23T12:00:57.443Z,6.55
2022-10-23T12:03:39.773Z,5.72
2022-10-23T12:06:07.240Z,6.40
2022-10-23T12:08:37.933Z,4.85
2022-10-23T12:11:04.765Z,5.25
2022-10-23T12:13:45.031Z,5.50
2022-10-23T12:16:12.246Z,5.85
2022-10-23T12:18:48.428Z,6.00
2022-10-23T12:21:23.443Z,6.80
2022-10-23T12:24:21.618Z,4.30
2022-10-23T12:27:24.635Z,5.03
2022-10-23T12:30:01.701Z,4.90
2022-10-23T12:32:34.559Z,5.63
2022-10-23T12:35:07.336Z,5.78
2022-10-23T12:38:11.985Z,5.35
2022-10-23T12:40:38.718Z,4.65
2022-10-23T12:43:25.262Z,5.43
2022-10-23T12:45:52.173Z,5.47
2022-10-23T12:48:20.811Z,2.90
2022-10-23T12:50:56.685Z,4.20
2022-10-23T12:53:23.911Z,4.25
2022-10-23T12:58:34.279Z,4.00
2022-10-23T13:01:07.203Z,5.93
2022-10-23T13:03:35.374Z,4.25
2022-10-23T13:06:03.331Z,6.15
2022-10-23T13:08:39.228Z,5.80
2022-10-23T13:11:06.665Z,9.68
2022-10-23T13:13:33.303Z,7.53
2022-10-23T13:16:00.105Z,6.15
2022-10-23T13:18:26.638Z,4.25
2022-10-23T13:20:53.319Z,3.42
2022-10-23T13:23:26.844Z,3.80
2022-10-23T13:26:25.641Z,4.38
2022-10-23T13:28:52.954Z,4.63
2022-10-23T13:31:29.548Z,6.68
2022-10-23T13:33:59.403Z,5.45
2022-10-23T13:36:30.198Z,6.68
2022-10-23T13:38:59.776Z,5.28
2022-10-23T13:41:29.453Z,5.57
2022-10-23T13:43:56.101Z,6.40
2022-10-23T13:46:24.409Z,5.88
2022-10-23T13:48:51.710Z,3.15
2022-10-23T13:51:22.208Z,3.58
2022-10-23T13:53:49.305Z,7.03
2022-10-23T13:56:18.270Z,8.23
2022-10-23T13:58:44.883Z,7.28
2022-10-23T14:01:35.477Z,16.27
2022-10-23T14:04:03.157Z,6.07
2022-10-23T14:06:30.576Z,5.97
2022-10-23T14:08:57.898Z,6.20
2022-10-23T14:11:25.088Z,3.60
2022-10-23T14:13:51.644Z,4.28
2022-10-23T14:16:20.030Z,5.75
2022-10-23T14:18:47.573Z,5.53
2022-10-23T14:21:16.524Z,2.65
2022-10-23T14:23:43.185Z,6.28
2022-10-23T14:26:12.493Z,7.90
2022-10-23T14:28:39.045Z,10.52
2022-10-23T14:31:07.880Z,9.88
2022-10-23T14:33:34.822Z,7.55
2022-10-23T14:36:01.469Z,8.48
2022-10-23T14:38:28.623Z,7.00
2022-10-23T14:40:55.401Z,6.50
2022-10-23T14:43:23.066Z,5.25
2022-10-23T14:45:49.761Z,5.90
2022-10-23T14:48:16.465Z,5.82
2022-10-23T14:50:45.192Z,5.65
2022-10-23T14:53:11.830Z,5.93
2022-10-23T14:55:38.657Z,5.50
2022-10-23T14:58:05.811Z,6.85
2022-10-23T15:00:32.863Z,4.30
2022-10-23T15:02:59.755Z,5.78
2022-10-23T15:05:26.434Z,3.45
2022-10-23T15:07:52.992Z,5.13
2022-10-23T15:10:19.538Z,6.93
2022-10-23T15:12:46.470Z,3.80
2022-10-23T15:15:13.297Z,6.20
2022-10-23T15:17:39.893Z,5.35
2022-10-23T15:20:06.761Z,4.57
2022-10-23T15:22:33.441Z,3.78
2022-10-23T15:24:59.991Z,5.18
2022-10-23T15:27:26.537Z,6.05
2022-10-23T15:29:53.276Z,8.95
2022-10-23T15:32:19.839Z,3.17
2022-10-23T15:34:46.548Z,7.53
2022-10-23T15:37:13.313Z,5.20
2022-10-23T15:39:39.984Z,5.38
2022-10-23T15:42:06.906Z,5.72
2022-10-23T15:44:34.335Z,7.32
2022-10-23T15:47:01.258Z,7.28
2022-10-23T15:49:28.686Z,7.07
2022-10-23T15:51:55.541Z,8.13
2022-10-23T15:54:22.473Z,4.22
2022-10-23T15:56:52.490Z,8.43
2022-10-23T15:59:21.973Z,6.07
2022-10-23T16:01:48.949Z,5.78
2022-10-23T16:04:15.646Z,6.82
2022-10-23T16:06:43.157Z,7.28
2022-10-23T16:09:09.928Z,7.55
2022-10-23T16:11:38.937Z,6.25
2022-10-23T16:14:06.221Z,9.88
2022-10-23T16:16:33.642Z,6.88
2022-10-23T16:19:02.125Z,10.00
2022-10-23T16:21:31.448Z,6.55
2022-10-23T16:23:59.720Z,10.07
2022-10-23T16:26:27.140Z,9.55
2022-10-23T16:28:55.498Z,11.20
2022-10-23T16:31:23.509Z,13.35
2022-10-23T16:33:51.085Z,12.70
2022-10-23T16:36:18.318Z,14.27
2022-10-23T16:38:44.970Z,14.38
2022-10-23T16:41:11.558Z,13.00
2022-10-23T16:43:38.332Z,12.50
2022-10-23T16:46:07.635Z,10.13
2022-10-23T16:48:34.999Z,11.82
2022-10-23T16:51:08.593Z,11.30
2022-10-23T16:53:35.579Z,10.73
2022-10-23T16:56:07.499Z,11.60
2022-10-23T16:58:35.125Z,12.73
2022-10-23T17:01:05.390Z,12.07
2022-10-23T17:03:40.142Z,12.82
2022-10-23T17:06:11.181Z,13.95
2022-10-23T17:08:39.089Z,15.60
2022-10-23T17:11:15.921Z,13.70
2022-10-23T17:13:53.973Z,11.85
2022-10-23T17:16:36.961Z,10.88
2022-10-23T17:19:16.045Z,11.52
2022-10-23T17:21:47.847Z,13.10
2022-10-23T17:24:14.551Z,13.05
2022-10-23T17:26:41.673Z,13.98
2022-10-23T17:29:10.387Z,14.07
2022-10-23T17:31:39.938Z,12.93
2022-10-23T17:34:10.603Z,14.25
2022-10-23T17:36:40.281Z,18.52
2022-10-23T17:39:08.374Z,12.60
2022-10-23T17:41:35.304Z,15.50
2022-10-23T17:44:02.294Z,15.10
2022-10-23T17:46:29.317Z,14.05
2022-10-23T17:51:35.332Z,13.85
2022-10-23T17:54:05.165Z,11.63
2022-10-23T17:56:34.247Z,10.68
2022-10-23T17:59:07.386Z,11.52
2022-10-23T18:01:34.293Z,10.63
2022-10-23T18:04:02.872Z,11.68
2022-10-23T18:06:32.751Z,9.13
2022-10-23T18:09:01.993Z,10.38
2022-10-23T18:11:32.324Z,11.20
2022-10-23T18:16:31.573Z,10.27
2022-10-23T18:18:59.747Z,11.35
2022-10-23T18:21:26.746Z,11.13
2022-10-23T18:23:53.682Z,12.80
2022-10-23T18:26:26.519Z,10.20
2022-10-23T18:28:55.477Z,11.25
2022-10-23T18:31:21.978Z,10.43
2022-10-23T18:33:48.597Z,10.02
2022-10-23T18:36:23.779Z,8.48
2022-10-23T18:38:50.933Z,8.77
2022-10-23T18:41:18.995Z,8.23
2022-10-23T18:43:46.441Z,7.55
2022-10-23T18:46:13.601Z,5.63
2022-10-23T18:48:41.273Z,6.65
2022-10-23T18:51:16.745Z,5.65
2022-10-23T18:53:44.441Z,4.97
2022-10-23T18:56:10.924Z,5.05
2022-10-23T18:58:37.705Z,4.55
2022-10-23T19:01:04.447Z,4.47
2022-10-23T19:03:31.050Z,4.32
2022-10-23T19:05:57.626Z,4.75
2022-10-23T19:08:24.125Z,7.50
2022-10-23T19:10:52.547Z,4.60
2022-10-23T19:13:19.059Z,5.22
2022-10-23T19:15:45.581Z,4.78
2022-10-23T19:18:12.096Z,3.92
2022-10-23T19:20:41.321Z,3.67
2022-10-23T19:23:07.861Z,4.35
2022-10-23T19:25:35.673Z,3.78
2022-10-23T19:28:03.377Z,3.42
2022-10-23T19:30:30.748Z,3.30
2022-10-23T19:32:57.347Z,3.50
2022-10-23T19:35:24.432Z,3.42
2022-10-23T19:37:50.976Z,2.90
2022-10-23T19:40:17.631Z,3.97
2022-10-23T19:42:44.257Z,3.90
2022-10-23T19:45:13.307Z,3.67
2022-10-23T19:47:40.906Z,4.07
2022-10-23T19:50:09.295Z,4.15
2022-10-23T19:52:36.010Z,3.90
2022-10-23T19:55:02.764Z,3.55
2022-10-23T19:57:29.602Z,3.83
2022-10-23T19:59:56.268Z,8.27
2022-10-23T20:02:23.094Z,4.18
2022-10-23T20:04:49.778Z,3.85
2022-10-23T20:07:16.549Z,3.55
2022-10-23T20:09:43.138Z,3.65
2022-10-23T20:12:10.304Z,9.48
2022-10-23T20:14:36.775Z,4.22
2022-10-23T20:17:03.400Z,3.55
2022-10-23T20:19:30.069Z,3.90
2022-10-23T20:21:56.545Z,3.75
2022-10-23T20:24:23.021Z,3.45
2022-10-23T20:26:54.086Z,3.90
2022-10-23T20:29:21.477Z,3.50
2022-10-23T20:31:48.356Z,3.70
2022-10-23T20:34:15.109Z,4.22
2022-10-23T20:36:46.623Z,5.30
2022-10-23T20:39:17.764Z,4.38
2022-10-23T20:41:44.446Z,4.28
2022-10-23T20:44:13.713Z,3.47
2022-10-23T20:46:40.679Z,3.45
2022-10-23T20:49:07.993Z,3.90
2022-10-23T20:51:34.460Z,3.67
2022-10-23T20:54:01.046Z,4.20
2022-10-23T20:56:30.587Z,3.67
2022-10-23T20:59:18.038Z,3.80
2022-10-23T21:01:49.723Z,3.70
2022-10-23T21:04:18.827Z,3.45
2022-10-23T21:07:08.498Z,4.30
2022-10-23T21:09:31.816Z,3.95
2022-10-23T21:11:58.348Z,3.60
2022-10-23T21:14:24.838Z,4.25
2022-10-23T21:16:51.331Z,3.78
2022-10-23T21:19:17.867Z,3.63
2022-10-23T21:21:44.432Z,3.88
2022-10-23T21:24:15.378Z,3.38
2022-10-23T21:26:42.424Z,3.42
2022-10-23T21:29:25.026Z,3.83
2022-10-23T21:31:56.331Z,3.63
2022-10-23T21:34:24.610Z,3.65
2022-10-23T21:37:11.963Z,3.65
2022-10-23T21:39:37.929Z,3.97
2022-10-23T21:42:04.667Z,3.42
2022-10-23T21:44:31.153Z,3.95
2022-10-23T21:46:57.786Z,3.63
2022-10-23T21:49:24.224Z,3.70
2022-10-23T21:51:50.679Z,3.97
2022-10-23T21:54:17.256Z,3.95
2022-10-23T21:56:49.037Z,3.65
2022-10-23T21:59:19.072Z,3.15
2022-10-23T22:01:47.166Z,3.35
2022-10-23T22:04:15.373Z,3.88
2022-10-23T22:06:43.220Z,4.30
2022-10-23T22:09:12.984Z,6.47
2022-10-23T22:11:39.481Z,3.75
2022-10-23T22:14:06.381Z,4.15
2022-10-23T22:16:33.206Z,3.53
2022-10-23T22:18:59.758Z,3.88
2022-10-23T22:21:28.850Z,3.70
2022-10-23T22:23:58.150Z,3.30
2022-10-23T22:26:26.158Z,4.05
2022-10-23T22:28:54.729Z,3.95
2022-10-23T22:31:23.518Z,4.53
2022-10-23T22:33:50.944Z,4.10
2022-10-23T22:36:17.607Z,4.53
2022-10-23T22:38:44.455Z,3.70
2022-10-23T22:41:11.636Z,4.10
2022-10-23T22:43:38.232Z,4.30
2022-10-23T22:46:16.233Z,3.53
2022-10-23T22:48:43.658Z,4.15
2022-10-23T22:51:15.837Z,3.75
2022-10-23T22:53:43.363Z,3.78
2022-10-23T22:56:13.249Z,3.78
2022-10-23T22:58:40.027Z,3.95
2022-10-23T23:01:14.736Z,4.05
2022-10-23T23:03:41.655Z,4.53
2022-10-23T23:06:09.059Z,4.20
2022-10-23T23:08:37.660Z,4.03
2022-10-23T23:11:05.526Z,4.60
2022-10-23T23:13:32.092Z,4.38
2022-10-23T23:15:59.220Z,4.82
2022-10-23T23:18:26.475Z,4.30
2022-10-23T23:20:52.967Z,4.60
2022-10-23T23:23:20.018Z,5.00
2022-10-23T23:25:48.985Z,4.43
2022-10-23T23:28:18.315Z,5.00
2022-10-23T23:33:17.895Z,4.68
2022-10-23T23:35:46.930Z,4.28
2022-10-23T23:38:13.569Z,4.10
2022-10-23T23:40:40.563Z,4.88
2022-10-23T23:43:07.208Z,4.85
2022-10-23T23:45:33.884Z,5.38
2022-10-23T23:48:00.379Z,5.40
2022-10-23T23:50:27.069Z,4.53
2022-10-23T23:52:53.557Z,6.75
2022-10-23T23:55:20.057Z,5.90
2022-10-23T23:57:46.948Z,5.03
